AirNav   Duncan Aviation - Near you to keep you flying
 
 1684 users online  

T30 Mc Kinley Field Airport
Pearsall, Texas, USA

GOING TO PEARSALL?


FAA INFORMATION EFFECTIVE 14 JULY 2022

Location

FAA Identifier: T30
Lat/Long: 28-49-20.1000N 099-06-32.5000W
28-49.335000N 099-06.541667W
28.8222500,-99.1090278
(estimated)
Elevation: 586.4 ft. / 178.7 m (surveyed)
Variation: 07E (1980)
From city: 4 miles S of PEARSALL, TX
Time zone: UTC -5 (UTC -6 during Standard Time)
Zip code: 78061

Airport Operations

Airport use: Open to the public
Activation date: 09/1955
Control tower: no
ARTCC: HOUSTON CENTER
FSS: SAN ANGELO FLIGHT SERVICE STATION
NOTAMs facility: SJT (NOTAM-D service available)
Attendance: CONTINUOUS
Wind indicator: lighted
Segmented circle: yes
Lights: SS-SR
Beacon: white-green (lighted land airport)
Operates sunset to sunrise.
Landing fee: yes

Airport Communications

CTAF/UNICOM: 122.8
  • APCH/DEP CTL SVC PRVDD BY HOUSTON ARTCC (ZHU) ON FREQS 134.6/322.5 (THREE RIVERS RCAG).

Nearby radio navigation aids

VOR radial/distance  VOR name  Freq  Var
COTr352/21.6COTULLA VORTAC115.8009E

 
NDB name  Hdg/Dist  Freq  Var  ID
DEVINE198/21.035907EHHH .... .... ....
LA PRYOR090/39.722309ELKX .-.. -.- -..-

Airport Services

Fuel available: 100LL JET-A
Parking: hangars and tiedowns
Airframe service: NONE
Powerplant service: NONE
Bottled oxygen: NONE
Bulk oxygen: NONE

Runway Information

Runway 13/31

Dimensions: 5027 x 60 ft. / 1532 x 18 m
Surface: asphalt, in good condition
Weight bearing capacity: 
Single wheel: 15.0, ESTD.
Runway edge lights: low intensity
RWY 13/31 NSTD LIRL; SPACING 20 FT FM EDGE & 300 FT BTN LGTS. NSTD DSPLCD THR LGTS.
Runway edge markings: RWY 13/31 NRS & CNTRLN EXTREMELY FADED.
RUNWAY 13  RUNWAY 31
Latitude: 28-49.639250N28-49.030833N
Longitude: 099-06.861867W099-06.221767W
Elevation: 586.4 ft.553.8 ft.
Traffic pattern: leftleft
Runway heading: 130 magnetic, 137 true310 magnetic, 317 true
Displaced threshold: 168 ft.154 ft.
Markings: NSTD, in poor conditionNSTD, in poor condition
Touchdown point: yes, no lightsyes, no lights
Obstructions: 15 ft. road, 201 ft. from runway, 76 ft. right of centerline
APCH RATIO 25:1 TO DSPLCD THR; +15 FT ROAD 378 FT FM DSPLCD THR 120 FT RIGHT OF CNTRLN.
60 ft. pline, 2120 ft. from runway, 32:1 slope to clear
RWY 31 APCH RATIO 37:1 TO DSPLCD THR.

Airport Ownership and Management from official FAA records

Ownership: Privately-owned
Owner: AERIAL LLC
BOX 764
PEARSALL, TX 78061
Phone 830-334-7306
Manager: IKE & NATHAN MC KINLEY
170 ENCINO
PEARSALL, TX 78061
Phone 830-334-7306
ALT MGR NR 830-334-7789 OR 210-542-0093

Airport Operational Statistics

Aircraft based on the field: 10
Single engine airplanes: 9
Helicopters: 1
    
Aircraft operations: avg 74/week *
84% local general aviation
16% transient general aviation
* for 12-month period ending 08 May 2020

Additional Remarks

FOR CD CTC HOUSTON ARTCC AT 281-230-5622.
DSPLCD THRS NOT LGTD, 4705 FT AVBL NGT.

Instrument Procedures

NOTE: All procedures below are presented as PDF files. If you need a reader for these files, you should download the free Adobe Reader.

NOT FOR NAVIGATION. Please procure official charts for flight.
FAA instrument procedures published for use from 14 July 2022 at 0901Z to 11 August 2022 at 0900z.

 
IAPs - Instrument Approach Procedures
VOR/DME OR GPS-A   download (147KB)
NOTE: Special Take-Off Minimums/Departure Procedures apply   download (294KB)

Other nearby airports with instrument procedures:

23R - Devine Municipal Airport (21 nm NE)
KCOT - Cotulla-La Salle County Airport (23 nm S)
KPEZ - Pleasanton Municipal Airport (32 nm E)
KHDO - South Texas Regional Airport at Hondo (32 nm N)
KCVB - Castroville Municipal Airport (34 nm NE)
 
Loc | Ops | Rwys | IFR | FBO | Links
Com | Nav | Svcs | Stats | Notes
Area around T30 (Mc Kinley Field Airport)
 
Road maps at: MapQuest Bing Google
 
Aerial photo
WARNING: Photo may not be current or correct
Aerial photo of T30 (Mc Kinley Field Airport)
Photo by Murray McKinley
Photo taken 23-Apr-2010
looking southeast.

Do you have a better or more recent aerial photo of Mc Kinley Field Airport that you would like to share? If so, please send us your photo.

 
Sectional chart

 
Airport distance calculator
Flying to Mc Kinley Field Airport? Find the distance to fly.

From to T30

Sunrise and sunset
Times for 10-Aug-2022
 Local
(UTC-5)
 Zulu
(UTC)
Morning civil twilight06:3911:39
Sunrise07:0412:04
Sunset20:2001:20
Evening civil twilight20:4501:45

Current date and time
Zulu (UTC)  10-Aug-2022 15:05:38
Local (UTC-5)  10-Aug-2022 10:05:38
 
METAR
KCOT 
23nm S 
101453Z AUTO 17007KT 10SM CLR 31/22 A3008 RMK AO2 SLP176 T03060217 51010
KPEZ 
32nm E 
101435Z AUTO 19006KT 10SM CLR 29/23 A3011 RMK AO2 T02940229
KHDO 
33nm N 
101451Z AUTO VRB06KT 10SM CLR 29/22 A3012 RMK AO2 SLP181 T02890217 51012
KCVB 
34nm NE 
101438Z AUTO 16006KT 10SM CLR 29/21 A3014 RMK AO2
KUVA 
41nm NW 
101455Z AUTO 13004KT 10SM CLR 28/21 A3013 RMK AO2 T02770213
KCZT 
42nm SW 
119.625
171530Z AUTO 18008KT 7SM CLR 31/18 A2997 RMK AO2
KSKF 
43nm NE 
101456Z AUTO 18006KT 10SM CLR 29/22 A3009 RMK AO2 SLP181 T02940216 52009 $
KSSF 
46nm NE 
101453Z VRB05KT 10SM CLR 29/22 A3009 RMK AO2 SLP175 T02940222 51009
TAF
KCOT 
23nm S 
101120Z 1012/1112 VRB04KT P6SM FEW025 SCT250 FM102100 14012G20KT P6SM FEW090 FM110600 14006KT P6SM FEW070
NOTAMs
Click for the latest NOTAMs
NOTAMs are issued by the DoD/FAA and will open in a separate window not controlled by AirNav.

 

 
 

FBO, Fuel Providers, and Aircraft Ground Support

  
 Business Name 
 
 Contact 
 
 Services / Description 
 
Fuel Prices
 
Comments
  
Mc Kinley Aerial Service 830-334-7306
no information available

If you are affiliated with Mc Kinley Aerial Service and would like to show here your services, contact info, web link, logo, and more, click here
100LL Jet A
AS $7.25 $6.25 
 Updated 28-Jul-2022
 
   write
AS=Assisted/Self Service
Update Fuel Prices
 

Would you like to see your business listed on this page?

 If your business provides an interesting product or service to pilots, flight crews, aircraft, or users of the Mc Kinley Field Airport, you should consider listing it here.  To start the listing process, click on the button below
 
Add a business
 

Other Pages about Mc Kinley Field Airport

Update a link
 
Copyright © AirNav, LLC. All rights reserved. Privacy Policy  Contact